sensor_id;sensor_type;location;lat;lon;timestamp;pressure;altitude;pressure_sealevel;temperature;humidity
21086;BME280;72320;50.082;20.000;2024-03-02T00:00:26;98482.36;;;6.75;76.60
21086;BME280;72320;50.082;20.000;2024-03-02T00:02:52;98479.33;;;6.71;76.67
21086;BME280;72320;50.082;20.000;2024-03-02T00:05:21;98481.39;;;6.75;76.84
21086;BME280;72320;50.082;20.000;2024-03-02T00:07:58;98483.31;;;6.79;76.87
21086;BME280;72320;50.082;20.000;2024-03-02T00:10:27;98487.85;;;6.77;76.80
21086;BME280;72320;50.082;20.000;2024-03-02T00:12:57;98489.70;;;6.74;76.93
21086;BME280;72320;50.082;20.000;2024-03-02T00:15:40;98488.77;;;6.78;77.01
21086;BME280;72320;50.082;20.000;2024-03-02T00:18:34;98486.58;;;6.79;76.90
21086;BME280;72320;50.082;20.000;2024-03-02T00:21:01;98489.13;;;6.79;76.82
21086;BME280;72320;50.082;20.000;2024-03-02T00:23:31;98493.77;;;6.78;76.82
21086;BME280;72320;50.082;20.000;2024-03-02T00:25:58;98496.18;;;6.72;76.90
21086;BME280;72320;50.082;20.000;2024-03-02T00:28:34;98492.23;;;6.74;76.80
21086;BME280;72320;50.082;20.000;2024-03-02T00:31:07;98491.77;;;6.74;76.71
21086;BME280;72320;50.082;20.000;2024-03-02T00:33:36;98489.39;;;6.77;76.81
21086;BME280;72320;50.082;20.000;2024-03-02T00:36:06;98489.39;;;6.73;76.78
21086;BME280;72320;50.082;20.000;2024-03-02T00:38:33;98482.98;;;6.61;76.83
21086;BME280;72320;50.082;20.000;2024-03-02T00:43:43;98485.73;;;6.71;77.00
21086;BME280;72320;50.082;20.000;2024-03-02T00:46:12;98494.27;;;6.76;77.03
21086;BME280;72320;50.082;20.000;2024-03-02T00:48:48;98496.36;;;6.78;76.93
21086;BME280;72320;50.082;20.000;2024-03-02T00:51:14;98487.81;;;6.79;76.92
21086;BME280;72320;50.082;20.000;2024-03-02T00:53:40;98479.08;;;6.77;76.71
21086;BME280;72320;50.082;20.000;2024-03-02T00:56:10;98469.06;;;6.69;76.90
21086;BME280;72320;50.082;20.000;2024-03-02T00:58:39;98470.27;;;6.72;77.02
21086;BME280;72320;50.082;20.000;2024-03-02T01:01:06;98473.33;;;6.77;76.92
21086;BME280;72320;50.082;20.000;2024-03-02T01:03:33;98479.02;;;6.80;77.02
21086;BME280;72320;50.082;20.000;2024-03-02T01:05:59;98484.58;;;6.88;76.88
21086;BME280;72320;50.082;20.000;2024-03-02T01:08:25;98477.69;;;6.90;76.71
21086;BME280;72320;50.082;20.000;2024-03-02T01:10:52;98469.87;;;6.85;76.77
21086;BME280;72320;50.082;20.000;2024-03-02T01:13:17;98466.30;;;6.81;76.58
21086;BME280;72320;50.082;20.000;2024-03-02T01:15:44;98469.10;;;6.83;76.57
21086;BME280;72320;50.082;20.000;2024-03-02T01:18:10;98468.80;;;6.71;76.75
21086;BME280;72320;50.082;20.000;2024-03-02T01:20:35;98461.69;;;6.76;76.71
21086;BME280;72320;50.082;20.000;2024-03-02T01:23:01;98460.60;;;6.72;76.70
21086;BME280;72320;50.082;20.000;2024-03-02T01:25:27;98458.70;;;6.73;76.73
21086;BME280;72320;50.082;20.000;2024-03-02T01:27:53;98460.31;;;6.70;76.84
21086;BME280;72320;50.082;20.000;2024-03-02T01:30:19;98455.82;;;6.67;76.73
21086;BME280;72320;50.082;20.000;2024-03-02T01:32:47;98447.59;;;6.69;76.82
21086;BME280;72320;50.082;20.000;2024-03-02T01:35:13;98451.28;;;6.72;76.79
21086;BME280;72320;50.082;20.000;2024-03-02T01:37:39;98444.05;;;6.67;76.79
21086;BME280;72320;50.082;20.000;2024-03-02T01:40:08;98441.31;;;6.63;76.85
21086;BME280;72320;50.082;20.000;2024-03-02T01:42:38;98442.23;;;6.59;76.82
21086;BME280;72320;50.082;20.000;2024-03-02T01:45:06;98432.73;;;6.60;76.89
21086;BME280;72320;50.082;20.000;2024-03-02T01:47:33;98424.13;;;6.56;76.85
21086;BME280;72320;50.082;20.000;2024-03-02T01:50:00;98424.08;;;6.59;77.08
21086;BME280;72320;50.082;20.000;2024-03-02T01:52:27;98423.94;;;6.64;76.92
21086;BME280;72320;50.082;20.000;2024-03-02T01:54:53;98427.95;;;6.64;76.89
21086;BME280;72320;50.082;20.000;2024-03-02T01:57:19;98428.90;;;6.65;76.81
21086;BME280;72320;50.082;20.000;2024-03-02T01:59:46;98430.80;;;6.62;76.78
21086;BME280;72320;50.082;20.000;2024-03-02T02:02:16;98432.90;;;6.48;76.86
21086;BME280;72320;50.082;20.000;2024-03-02T02:04:42;98428.16;;;6.52;76.93
21086;BME280;72320;50.082;20.000;2024-03-02T02:07:09;98424.85;;;6.50;76.90
21086;BME280;72320;50.082;20.000;2024-03-02T02:09:35;98425.31;;;6.38;76.76
21086;BME280;72320;50.082;20.000;2024-03-02T02:12:01;98428.66;;;6.39;76.91
21086;BME280;72320;50.082;20.000;2024-03-02T02:14:29;98433.32;;;6.36;76.91
21086;BME280;72320;50.082;20.000;2024-03-02T02:16:55;98435.54;;;6.39;77.01
21086;BME280;72320;50.082;20.000;2024-03-02T02:19:21;98440.05;;;6.35;77.01
21086;BME280;72320;50.082;20.000;2024-03-02T02:21:46;98438.80;;;6.29;77.01
21086;BME280;72320;50.082;20.000;2024-03-02T02:24:12;98431.70;;;6.28;77.02
21086;BME280;72320;50.082;20.000;2024-03-02T02:26:39;98430.81;;;6.24;77.07
21086;BME280;72320;50.082;20.000;2024-03-02T02:29:05;98433.05;;;6.16;77.02
21086;BME280;72320;50.082;20.000;2024-03-02T02:31:41;98433.65;;;6.13;76.98
21086;BME280;72320;50.082;20.000;2024-03-02T02:34:08;98436.98;;;6.10;77.04
21086;BME280;72320;50.082;20.000;2024-03-02T02:36:38;98432.71;;;6.06;77.28
21086;BME280;72320;50.082;20.000;2024-03-02T02:39:08;98431.39;;;5.95;77.15
21086;BME280;72320;50.082;20.000;2024-03-02T02:41:36;98426.86;;;5.86;77.22
21086;BME280;72320;50.082;20.000;2024-03-02T02:44:03;98424.40;;;5.81;77.39
21086;BME280;72320;50.082;20.000;2024-03-02T02:46:29;98421.52;;;5.77;77.57
21086;BME280;72320;50.082;20.000;2024-03-02T02:48:56;98423.11;;;5.80;77.67
21086;BME280;72320;50.082;20.000;2024-03-02T02:51:21;98420.41;;;5.76;77.94
21086;BME280;72320;50.082;20.000;2024-03-02T02:53:47;98416.25;;;5.79;78.12
21086;BME280;72320;50.082;20.000;2024-03-02T02:56:13;98418.69;;;5.82;78.10
21086;BME280;72320;50.082;20.000;2024-03-02T02:58:42;98416.10;;;5.81;78.40
21086;BME280;72320;50.082;20.000;2024-03-02T03:01:08;98420.41;;;5.90;78.37
21086;BME280;72320;50.082;20.000;2024-03-02T03:03:35;98428.33;;;5.87;78.57
21086;BME280;72320;50.082;20.000;2024-03-02T03:06:03;98426.99;;;5.84;78.55
21086;BME280;72320;50.082;20.000;2024-03-02T03:08:29;98420.92;;;5.90;78.68
21086;BME280;72320;50.082;20.000;2024-03-02T03:10:54;98415.43;;;5.95;78.60
21086;BME280;72320;50.082;20.000;2024-03-02T03:13:20;98413.59;;;5.91;78.61
21086;BME280;72320;50.082;20.000;2024-03-02T03:15:46;98415.77;;;5.94;78.70
21086;BME280;72320;50.082;20.000;2024-03-02T03:18:13;98422.27;;;5.99;78.76
21086;BME280;72320;50.082;20.000;2024-03-02T03:20:39;98427.89;;;6.02;78.77
21086;BME280;72320;50.082;20.000;2024-03-02T03:23:05;98434.23;;;6.10;78.65
21086;BME280;72320;50.082;20.000;2024-03-02T03:25:30;98432.85;;;6.11;78.64
21086;BME280;72320;50.082;20.000;2024-03-02T03:27:56;98431.47;;;6.13;78.64
21086;BME280;72320;50.082;20.000;2024-03-02T03:30:23;98432.80;;;6.14;78.56
21086;BME280;72320;50.082;20.000;2024-03-02T03:32:49;98434.70;;;6.04;78.55
21086;BME280;72320;50.082;20.000;2024-03-02T03:35:15;98431.73;;;6.03;78.55
21086;BME280;72320;50.082;20.000;2024-03-02T03:37:41;98423.38;;;5.99;78.41
21086;BME280;72320;50.082;20.000;2024-03-02T03:40:08;98415.20;;;6.03;78.37
21086;BME280;72320;50.082;20.000;2024-03-02T03:42:37;98416.02;;;5.96;78.44
21086;BME280;72320;50.082;20.000;2024-03-02T03:45:04;98413.13;;;5.77;78.34
21086;BME280;72320;50.082;20.000;2024-03-02T03:47:33;98413.91;;;5.83;78.44
21086;BME280;72320;50.082;20.000;2024-03-02T03:49:58;98412.28;;;5.80;78.46
21086;BME280;72320;50.082;20.000;2024-03-02T03:52:24;98418.92;;;5.81;78.40
21086;BME280;72320;50.082;20.000;2024-03-02T03:54:51;98416.70;;;5.81;78.48
21086;BME280;72320;50.082;20.000;2024-03-02T03:57:17;98411.74;;;5.76;78.53
21086;BME280;72320;50.082;20.000;2024-03-02T03:59:43;98415.13;;;5.67;78.62
21086;BME280;72320;50.082;20.000;2024-03-02T04:02:11;98409.34;;;5.73;78.70
21086;BME280;72320;50.082;20.000;2024-03-02T04:04:38;98410.17;;;5.76;78.58
21086;BME280;72320;50.082;20.000;2024-03-02T04:07:04;98405.89;;;5.77;78.56
21086;BME280;72320;50.082;20.000;2024-03-02T04:09:30;98406.43;;;5.76;78.50
21086;BME280;72320;50.082;20.000;2024-03-02T04:11:56;98400.66;;;5.77;78.68
21086;BME280;72320;50.082;20.000;2024-03-02T04:14:21;98402.98;;;5.76;78.61
21086;BME280;72320;50.082;20.000;2024-03-02T04:16:47;98407.63;;;5.68;78.58
21086;BME280;72320;50.082;20.000;2024-03-02T04:19:13;98414.35;;;5.64;78.64
21086;BME280;72320;50.082;20.000;2024-03-02T04:21:39;98420.02;;;5.69;78.71
21086;BME280;72320;50.082;20.000;2024-03-02T04:24:05;98419.90;;;5.73;78.69
21086;BME280;72320;50.082;20.000;2024-03-02T04:26:31;98422.78;;;5.73;78.64
21086;BME280;72320;50.082;20.000;2024-03-02T04:28:57;98420.67;;;5.69;78.56
21086;BME280;72320;50.082;20.000;2024-03-02T04:31:23;98422.09;;;5.68;78.59
21086;BME280;72320;50.082;20.000;2024-03-02T04:33:48;98428.44;;;5.68;78.59
21086;BME280;72320;50.082;20.000;2024-03-02T04:36:16;98427.82;;;5.64;78.60
21086;BME280;72320;50.082;20.000;2024-03-02T04:38:41;98422.83;;;5.62;78.53
21086;BME280;72320;50.082;20.000;2024-03-02T04:41:07;98418.20;;;5.59;78.53
21086;BME280;72320;50.082;20.000;2024-03-02T04:43:34;98412.71;;;5.62;78.64
21086;BME280;72320;50.082;20.000;2024-03-02T04:46:01;98407.64;;;5.60;78.52
21086;BME280;72320;50.082;20.000;2024-03-02T04:48:27;98403.73;;;5.56;78.63
21086;BME280;72320;50.082;20.000;2024-03-02T04:50:52;98404.44;;;5.64;78.66
21086;BME280;72320;50.082;20.000;2024-03-02T04:53:18;98404.71;;;5.68;78.78
21086;BME280;72320;50.082;20.000;2024-03-02T04:55:44;98402.19;;;5.71;78.72
21086;BME280;72320;50.082;20.000;2024-03-02T04:58:10;98398.42;;;5.69;78.64
21086;BME280;72320;50.082;20.000;2024-03-02T05:00:35;98401.98;;;5.73;78.76
21086;BME280;72320;50.082;20.000;2024-03-02T05:03:02;98405.38;;;5.78;78.67
21086;BME280;72320;50.082;20.000;2024-03-02T05:05:30;98413.84;;;5.84;78.77
21086;BME280;72320;50.082;20.000;2024-03-02T05:07:56;98420.89;;;5.86;78.79
21086;BME280;72320;50.082;20.000;2024-03-02T05:10:23;98419.57;;;5.93;78.73
21086;BME280;72320;50.082;20.000;2024-03-02T05:12:49;98422.55;;;6.01;78.64
21086;BME280;72320;50.082;20.000;2024-03-02T05:15:22;98422.79;;;6.07;78.70
21086;BME280;72320;50.082;20.000;2024-03-02T05:17:49;98426.31;;;6.13;78.70
21086;BME280;72320;50.082;20.000;2024-03-02T05:20:14;98430.61;;;6.19;78.68
21086;BME280;72320;50.082;20.000;2024-03-02T05:22:41;98430.48;;;6.20;78.58
21086;BME280;72320;50.082;20.000;2024-03-02T05:25:09;98434.93;;;6.26;78.59
21086;BME280;72320;50.082;20.000;2024-03-02T05:27:37;98442.76;;;6.32;78.63
21086;BME280;72320;50.082;20.000;2024-03-02T05:30:04;98448.49;;;6.39;78.51
21086;BME280;72320;50.082;20.000;2024-03-02T05:32:33;98448.43;;;6.45;78.60
21086;BME280;72320;50.082;20.000;2024-03-02T05:34:59;98452.96;;;6.54;78.42
21086;BME280;72320;50.082;20.000;2024-03-02T05:37:25;98457.68;;;6.63;78.38
21086;BME280;72320;50.082;20.000;2024-03-02T05:39:51;98460.36;;;6.71;78.36
21086;BME280;72320;50.082;20.000;2024-03-02T05:42:18;98464.13;;;6.76;78.25
21086;BME280;72320;50.082;20.000;2024-03-02T05:44:45;98459.21;;;6.81;78.05
21086;BME280;72320;50.082;20.000;2024-03-02T05:47:11;98458.87;;;6.88;78.03
21086;BME280;72320;50.082;20.000;2024-03-02T05:49:38;98462.14;;;6.89;77.81
21086;BME280;72320;50.082;20.000;2024-03-02T05:52:04;98465.14;;;6.94;77.79
21086;BME280;72320;50.082;20.000;2024-03-02T05:54:32;98467.95;;;7.01;77.59
21086;BME280;72320;50.082;20.000;2024-03-02T05:56:59;98461.64;;;7.10;77.58
21086;BME280;72320;50.082;20.000;2024-03-02T05:59:43;98458.24;;;7.07;77.41
21086;BME280;72320;50.082;20.000;2024-03-02T06:02:09;98452.85;;;7.02;77.15
21086;BME280;72320;50.082;20.000;2024-03-02T06:04:35;98447.11;;;6.99;76.93
21086;BME280;72320;50.082;20.000;2024-03-02T06:07:01;98452.61;;;7.06;76.82
21086;BME280;72320;50.082;20.000;2024-03-02T06:09:27;98453.46;;;7.04;76.66
21086;BME280;72320;50.082;20.000;2024-03-02T06:11:53;98458.65;;;7.05;76.50
21086;BME280;72320;50.082;20.000;2024-03-02T06:14:19;98464.21;;;7.20;76.43
21086;BME280;72320;50.082;20.000;2024-03-02T06:16:44;98471.80;;;7.37;76.28
21086;BME280;72320;50.082;20.000;2024-03-02T06:19:11;98471.58;;;7.48;76.01
21086;BME280;72320;50.082;20.000;2024-03-02T06:21:37;98474.17;;;7.49;75.75
21086;BME280;72320;50.082;20.000;2024-03-02T06:24:03;98478.77;;;7.62;75.53
21086;BME280;72320;50.082;20.000;2024-03-02T06:26:29;98479.60;;;7.77;75.47
21086;BME280;72320;50.082;20.000;2024-03-02T06:28:56;98478.92;;;7.91;75.22
21086;BME280;72320;50.082;20.000;2024-03-02T06:31:21;98479.73;;;7.98;75.00
21086;BME280;72320;50.082;20.000;2024-03-02T06:33:47;98480.51;;;7.95;74.74
21086;BME280;72320;50.082;20.000;2024-03-02T06:36:13;98470.56;;;7.88;74.40
21086;BME280;72320;50.082;20.000;2024-03-02T06:38:42;98464.67;;;7.94;74.06
21086;BME280;72320;50.082;20.000;2024-03-02T06:41:08;98470.98;;;7.89;73.89
21086;BME280;72320;50.082;20.000;2024-03-02T06:43:35;98469.67;;;7.96;73.65
21086;BME280;72320;50.082;20.000;2024-03-02T06:46:01;98466.20;;;8.08;73.47
21086;BME280;72320;50.082;20.000;2024-03-02T06:48:29;98471.38;;;8.17;73.22
21086;BME280;72320;50.082;20.000;2024-03-02T06:50:55;98474.04;;;8.24;73.07
21086;BME280;72320;50.082;20.000;2024-03-02T06:53:21;98471.83;;;8.33;72.80
21086;BME280;72320;50.082;20.000;2024-03-02T06:55:48;98472.70;;;8.37;72.62
21086;BME280;72320;50.082;20.000;2024-03-02T06:58:14;98470.95;;;8.50;72.47
21086;BME280;72320;50.082;20.000;2024-03-02T07:00:43;98469.50;;;8.49;72.10
21086;BME280;72320;50.082;20.000;2024-03-02T07:03:13;98479.16;;;8.44;71.75
21086;BME280;72320;50.082;20.000;2024-03-02T07:05:39;98477.54;;;8.49;71.55
21086;BME280;72320;50.082;20.000;2024-03-02T07:08:06;98483.38;;;8.57;71.41
21086;BME280;72320;50.082;20.000;2024-03-02T07:10:32;98486.75;;;8.61;71.33
21086;BME280;72320;50.082;20.000;2024-03-02T07:12:58;98486.34;;;8.76;71.02
21086;BME280;72320;50.082;20.000;2024-03-02T07:15:25;98477.11;;;8.98;70.87
21086;BME280;72320;50.082;20.000;2024-03-02T07:18:27;98475.12;;;9.05;70.55
21086;BME280;72320;50.082;20.000;2024-03-02T07:20:52;98479.54;;;9.03;70.16
21086;BME280;72320;50.082;20.000;2024-03-02T07:23:18;98485.63;;;9.07;69.88
21086;BME280;72320;50.082;20.000;2024-03-02T07:25:46;98491.10;;;9.10;69.74
21086;BME280;72320;50.082;20.000;2024-03-02T07:28:11;98494.64;;;9.16;69.43
21086;BME280;72320;50.082;20.000;2024-03-02T07:30:39;98496.10;;;9.35;69.34
21086;BME280;72320;50.082;20.000;2024-03-02T07:33:05;98500.23;;;9.53;69.16
21086;BME280;72320;50.082;20.000;2024-03-02T07:35:31;98502.84;;;9.47;68.77
21086;BME280;72320;50.082;20.000;2024-03-02T07:37:57;98501.96;;;9.55;68.44
21086;BME280;72320;50.082;20.000;2024-03-02T07:40:25;98503.55;;;9.64;68.29
21086;BME280;72320;50.082;20.000;2024-03-02T07:42:51;98502.20;;;9.83;68.10
21086;BME280;72320;50.082;20.000;2024-03-02T07:45:18;98504.54;;;10.08;67.81
21086;BME280;72320;50.082;20.000;2024-03-02T07:47:44;98503.06;;;10.15;67.27
21086;BME280;72320;50.082;20.000;2024-03-02T07:50:11;98501.94;;;10.18;66.94
21086;BME280;72320;50.082;20.000;2024-03-02T07:52:37;98506.92;;;10.39;66.71
21086;BME280;72320;50.082;20.000;2024-03-02T07:55:03;98509.80;;;10.57;66.22
21086;BME280;72320;50.082;20.000;2024-03-02T07:57:30;98513.41;;;10.67;65.87
21086;BME280;72320;50.082;20.000;2024-03-02T07:59:57;98509.66;;;10.58;65.55
21086;BME280;72320;50.082;20.000;2024-03-02T08:02:26;98507.20;;;10.58;65.30
21086;BME280;72320;50.082;20.000;2024-03-02T08:04:54;98519.86;;;10.59;65.04
21086;BME280;72320;50.082;20.000;2024-03-02T08:07:19;98516.84;;;10.69;64.96
21086;BME280;72320;50.082;20.000;2024-03-02T08:09:46;98517.64;;;10.84;64.93
21086;BME280;72320;50.082;20.000;2024-03-02T08:12:17;98515.13;;;10.89;64.55
21086;BME280;72320;50.082;20.000;2024-03-02T08:14:45;98517.15;;;10.79;64.27
21086;BME280;72320;50.082;20.000;2024-03-02T08:17:13;98513.03;;;10.80;64.09
21086;BME280;72320;50.082;20.000;2024-03-02T08:19:39;98512.06;;;10.84;64.05
21086;BME280;72320;50.082;20.000;2024-03-02T08:22:07;98512.63;;;11.03;64.09
21086;BME280;72320;50.082;20.000;2024-03-02T08:24:33;98514.30;;;11.21;63.86
21086;BME280;72320;50.082;20.000;2024-03-02T08:27:01;98512.66;;;11.38;63.63
21086;BME280;72320;50.082;20.000;2024-03-02T08:29:27;98511.89;;;11.48;63.33
21086;BME280;72320;50.082;20.000;2024-03-02T08:31:55;98516.55;;;11.40;63.00
21086;BME280;72320;50.082;20.000;2024-03-02T08:34:24;98514.71;;;11.17;62.83
21086;BME280;72320;50.082;20.000;2024-03-02T08:36:50;98515.80;;;11.12;62.92
21086;BME280;72320;50.082;20.000;2024-03-02T08:39:16;98515.11;;;11.22;62.95
21086;BME280;72320;50.082;20.000;2024-03-02T08:41:44;98519.61;;;11.21;62.77
21086;BME280;72320;50.082;20.000;2024-03-02T08:44:10;98529.97;;;11.19;62.76
21086;BME280;72320;50.082;20.000;2024-03-02T08:46:36;98525.83;;;11.16;62.84
21086;BME280;72320;50.082;20.000;2024-03-02T08:49:04;98524.17;;;11.28;62.87
21086;BME280;72320;50.082;20.000;2024-03-02T08:51:30;98525.29;;;11.32;62.85
21086;BME280;72320;50.082;20.000;2024-03-02T08:53:56;98525.28;;;11.34;62.79
21086;BME280;72320;50.082;20.000;2024-03-02T08:56:23;98526.31;;;11.26;62.78
21086;BME280;72320;50.082;20.000;2024-03-02T08:58:50;98527.59;;;11.16;62.83
21086;BME280;72320;50.082;20.000;2024-03-02T09:01:18;98530.81;;;11.24;63.02
21086;BME280;72320;50.082;20.000;2024-03-02T09:03:46;98534.15;;;11.23;62.97
21086;BME280;72320;50.082;20.000;2024-03-02T09:06:14;98535.53;;;11.17;63.06
21086;BME280;72320;50.082;20.000;2024-03-02T09:08:39;98536.67;;;11.09;63.16
21086;BME280;72320;50.082;20.000;2024-03-02T09:11:07;98537.55;;;11.15;63.18
21086;BME280;72320;50.082;20.000;2024-03-02T09:13:33;98540.95;;;11.16;63.21
21086;BME280;72320;50.082;20.000;2024-03-02T09:15:59;98538.53;;;11.13;63.34
21086;BME280;72320;50.082;20.000;2024-03-02T09:18:27;98538.80;;;10.97;63.40
21086;BME280;72320;50.082;20.000;2024-03-02T09:20:53;98540.96;;;11.05;63.59
21086;BME280;72320;50.082;20.000;2024-03-02T09:23:19;98541.30;;;11.18;63.43
21086;BME280;72320;50.082;20.000;2024-03-02T09:25:44;98544.63;;;11.16;63.54
21086;BME280;72320;50.082;20.000;2024-03-02T09:28:11;98546.84;;;11.23;63.45
21086;BME280;72320;50.082;20.000;2024-03-02T09:30:37;98549.27;;;11.27;63.45
21086;BME280;72320;50.082;20.000;2024-03-02T09:33:04;98551.03;;;11.27;63.41
21086;BME280;72320;50.082;20.000;2024-03-02T09:35:30;98555.34;;;11.28;63.42
21086;BME280;72320;50.082;20.000;2024-03-02T09:37:55;98559.91;;;11.20;63.44
21086;BME280;72320;50.082;20.000;2024-03-02T09:40:22;98559.63;;;11.02;63.58
21086;BME280;72320;50.082;20.000;2024-03-02T09:42:49;98561.77;;;10.92;63.81
21086;BME280;72320;50.082;20.000;2024-03-02T09:45:24;98564.88;;;10.94;63.94
21086;BME280;72320;50.082;20.000;2024-03-02T09:47:51;98567.72;;;11.18;64.14
21086;BME280;72320;50.082;20.000;2024-03-02T09:50:19;98564.62;;;11.24;63.87
21086;BME280;72320;50.082;20.000;2024-03-02T09:52:50;98567.40;;;11.27;63.90
21086;BME280;72320;50.082;20.000;2024-03-02T09:55:20;98569.45;;;11.30;63.73
21086;BME280;72320;50.082;20.000;2024-03-02T09:57:47;98569.34;;;11.47;63.79
21086;BME280;72320;50.082;20.000;2024-03-02T10:00:17;98571.96;;;11.72;63.73
21086;BME280;72320;50.082;20.000;2024-03-02T10:02:43;98573.91;;;11.85;63.41
21086;BME280;72320;50.082;20.000;2024-03-02T10:05:10;98572.11;;;11.85;63.11
21086;BME280;72320;50.082;20.000;2024-03-02T10:07:35;98575.73;;;11.97;62.96
21086;BME280;72320;50.082;20.000;2024-03-02T10:10:15;98576.17;;;12.14;62.72
21086;BME280;72320;50.082;20.000;2024-03-02T10:12:41;98578.08;;;12.42;62.45
21086;BME280;72320;50.082;20.000;2024-03-02T10:15:07;98573.14;;;12.69;62.00
21086;BME280;72320;50.082;20.000;2024-03-02T10:17:35;98566.52;;;12.87;61.38
21086;BME280;72320;50.082;20.000;2024-03-02T10:20:22;98561.80;;;13.10;61.01
21086;BME280;72320;50.082;20.000;2024-03-02T10:22:48;98558.56;;;13.21;60.35
21086;BME280;72320;50.082;20.000;2024-03-02T10:25:32;98558.13;;;13.26;59.91
21086;BME280;72320;50.082;20.000;2024-03-02T10:28:01;98560.70;;;13.10;59.38
21086;BME280;72320;50.082;20.000;2024-03-02T10:30:27;98560.31;;;12.97;59.12
21086;BME280;72320;50.082;20.000;2024-03-02T10:32:54;98558.30;;;12.96;59.06
21086;BME280;72320;50.082;20.000;2024-03-02T10:35:22;98554.71;;;13.11;58.96
21086;BME280;72320;50.082;20.000;2024-03-02T10:37:53;98553.40;;;13.25;58.84
21086;BME280;72320;50.082;20.000;2024-03-02T10:40:46;98556.59;;;13.55;58.44
21086;BME280;72320;50.082;20.000;2024-03-02T10:43:13;98550.69;;;13.78;57.98
21086;BME280;72320;50.082;20.000;2024-03-02T10:45:39;98548.02;;;13.90;57.55
21086;BME280;72320;50.082;20.000;2024-03-02T10:48:07;98547.64;;;14.01;57.40
21086;BME280;72320;50.082;20.000;2024-03-02T10:50:33;98543.48;;;14.29;57.16
21086;BME280;72320;50.082;20.000;2024-03-02T10:52:59;98547.28;;;14.59;56.72
21086;BME280;72320;50.082;20.000;2024-03-02T10:55:27;98543.27;;;14.89;56.18
21086;BME280;72320;50.082;20.000;2024-03-02T10:57:54;98543.83;;;15.04;55.54
21086;BME280;72320;50.082;20.000;2024-03-02T11:00:25;98536.17;;;15.17;55.00
21086;BME280;72320;50.082;20.000;2024-03-02T11:03:05;98530.81;;;15.07;54.33
21086;BME280;72320;50.082;20.000;2024-03-02T11:05:43;98534.91;;;15.02;54.13
21086;BME280;72320;50.082;20.000;2024-03-02T11:08:18;98534.75;;;15.02;53.95
21086;BME280;72320;50.082;20.000;2024-03-02T11:11:15;98537.75;;;14.97;53.84
21086;BME280;72320;50.082;20.000;2024-03-02T11:13:49;98535.93;;;14.85;53.85
21086;BME280;72320;50.082;20.000;2024-03-02T11:16:32;98535.16;;;14.55;53.92
21086;BME280;72320;50.082;20.000;2024-03-02T11:19:12;98538.39;;;14.53;54.37
21086;BME280;72320;50.082;20.000;2024-03-02T11:21:39;98534.61;;;14.39;54.29
21086;BME280;72320;50.082;20.000;2024-03-02T11:27:08;98527.67;;;14.70;54.36
21086;BME280;72320;50.082;20.000;2024-03-02T11:32:18;98532.48;;;14.62;54.18
21086;BME280;72320;50.082;20.000;2024-03-02T11:34:49;98531.88;;;14.74;54.28
21086;BME280;72320;50.082;20.000;2024-03-02T11:37:17;98532.73;;;14.91;54.13
21086;BME280;72320;50.082;20.000;2024-03-02T11:39:50;98530.77;;;15.08;54.00
21086;BME280;72320;50.082;20.000;2024-03-02T11:42:17;98525.73;;;15.02;53.74
21086;BME280;72320;50.082;20.000;2024-03-02T11:44:49;98522.20;;;14.85;53.97
21086;BME280;72320;50.082;20.000;2024-03-02T11:47:18;98520.98;;;14.80;54.04
21086;BME280;72320;50.082;20.000;2024-03-02T11:49:50;98514.46;;;14.53;54.14
21086;BME280;72320;50.082;20.000;2024-03-02T11:52:17;98511.69;;;14.44;54.50
21086;BME280;72320;50.082;20.000;2024-03-02T11:54:45;98514.29;;;14.77;54.53
21086;BME280;72320;50.082;20.000;2024-03-02T11:57:21;98510.09;;;15.02;54.30
21086;BME280;72320;50.082;20.000;2024-03-02T11:59:48;98511.39;;;15.40;53.83
21086;BME280;72320;50.082;20.000;2024-03-02T12:02:19;98512.44;;;15.79;53.27
21086;BME280;72320;50.082;20.000;2024-03-02T12:04:47;98514.29;;;15.84;52.75
21086;BME280;72320;50.082;20.000;2024-03-02T12:07:22;98510.99;;;15.69;52.68
21086;BME280;72320;50.082;20.000;2024-03-02T12:09:59;98509.52;;;15.57;52.70
21086;BME280;72320;50.082;20.000;2024-03-02T12:12:25;98508.54;;;15.71;52.81
21086;BME280;72320;50.082;20.000;2024-03-02T12:14:53;98506.36;;;16.02;52.65
21086;BME280;72320;50.082;20.000;2024-03-02T12:17:22;98509.36;;;16.28;52.13
21086;BME280;72320;50.082;20.000;2024-03-02T12:19:48;98509.77;;;16.33;51.71
21086;BME280;72320;50.082;20.000;2024-03-02T12:22:14;98518.23;;;16.16;51.47
21086;BME280;72320;50.082;20.000;2024-03-02T12:24:41;98521.27;;;16.14;51.54
21086;BME280;72320;50.082;20.000;2024-03-02T12:27:12;98518.97;;;16.11;51.46
21086;BME280;72320;50.082;20.000;2024-03-02T12:29:38;98512.63;;;15.77;51.55
21086;BME280;72320;50.082;20.000;2024-03-02T12:32:05;98514.71;;;15.57;51.92
21086;BME280;72320;50.082;20.000;2024-03-02T12:34:32;98512.74;;;15.72;52.06
21086;BME280;72320;50.082;20.000;2024-03-02T12:37:01;98514.23;;;15.85;51.83
21086;BME280;72320;50.082;20.000;2024-03-02T12:39:27;98518.39;;;15.95;51.59
21086;BME280;72320;50.082;20.000;2024-03-02T12:41:53;98517.80;;;15.97;51.61
21086;BME280;72320;50.082;20.000;2024-03-02T12:44:20;98516.20;;;16.17;51.43
21086;BME280;72320;50.082;20.000;2024-03-02T12:46:46;98509.59;;;16.35;51.12
21086;BME280;72320;50.082;20.000;2024-03-02T12:49:15;98506.66;;;16.34;50.86
21086;BME280;72320;50.082;20.000;2024-03-02T12:51:46;98507.52;;;16.41;50.73
21086;BME280;72320;50.082;20.000;2024-03-02T12:54:17;98502.88;;;16.42;50.75
21086;BME280;72320;50.082;20.000;2024-03-02T12:56:44;98499.83;;;16.35;50.54
21086;BME280;72320;50.082;20.000;2024-03-02T12:59:25;98498.64;;;16.12;50.65
21086;BME280;72320;50.082;20.000;2024-03-02T13:01:52;98499.05;;;15.95;50.98
21086;BME280;72320;50.082;20.000;2024-03-02T13:04:28;98500.74;;;16.04;51.03
21086;BME280;72320;50.082;20.000;2024-03-02T13:06:59;98497.41;;;15.96;51.03